sensor_id;sensor_type;location;lat;lon;timestamp;pressure;altitude;pressure_sealevel;temperature;humidity
113;BME280;45999;48.808;9.182;2023-04-06T00:02:18;98342.38;;;2.26;nan
113;BME280;45999;48.808;9.182;2023-04-06T00:04:44;98344.53;;;2.31;nan
113;BME280;45999;48.808;9.182;2023-04-06T00:07:11;98339.94;;;2.33;nan
113;BME280;45999;48.808;9.182;2023-04-06T00:09:37;98332.56;;;2.28;nan
113;BME280;45999;48.808;9.182;2023-04-06T00:12:04;98340.28;;;2.30;nan
113;BME280;45999;48.808;9.182;2023-04-06T00:14:30;98333.88;;;2.24;nan
113;BME280;45999;48.808;9.182;2023-04-06T00:16:57;98336.97;;;2.28;nan
113;BME280;45999;48.808;9.182;2023-04-06T00:19:23;98331.88;;;2.26;nan
113;BME280;45999;48.808;9.182;2023-04-06T00:21:49;98335.03;;;2.30;nan
113;BME280;45999;48.808;9.182;2023-04-06T00:24:16;98333.75;;;2.34;nan
113;BME280;45999;48.808;9.182;2023-04-06T00:26:42;98329.47;;;2.25;nan
113;BME280;45999;48.808;9.182;2023-04-06T00:29:09;98328.78;;;2.23;nan
113;BME280;45999;48.808;9.182;2023-04-06T00:31:35;98329.09;;;2.20;nan
113;BME280;45999;48.808;9.182;2023-04-06T00:34:02;98322.19;;;2.19;nan
113;BME280;45999;48.808;9.182;2023-04-06T00:36:28;98329.09;;;2.20;nan
113;BME280;45999;48.808;9.182;2023-04-06T00:38:55;98334.19;;;2.13;nan
113;BME280;45999;48.808;9.182;2023-04-06T00:41:21;98329.69;;;2.06;nan
113;BME280;45999;48.808;9.182;2023-04-06T00:43:48;98322.50;;;2.08;nan
113;BME280;45999;48.808;9.182;2023-04-06T00:46:14;98321.88;;;2.14;nan
113;BME280;45999;48.808;9.182;2023-04-06T00:48:41;98321.53;;;2.09;nan
113;BME280;45999;48.808;9.182;2023-04-06T00:51:07;98316.28;;;2.09;nan
113;BME280;45999;48.808;9.182;2023-04-06T00:53:33;98317.72;;;2.03;nan
113;BME280;45999;48.808;9.182;2023-04-06T00:56:00;98308.22;;;2.02;nan
113;BME280;45999;48.808;9.182;2023-04-06T00:58:27;98313.28;;;1.96;nan
113;BME280;45999;48.808;9.182;2023-04-06T01:00:53;98309.84;;;1.87;nan
113;BME280;45999;48.808;9.182;2023-04-06T01:03:20;98307.41;;;1.94;nan
113;BME280;45999;48.808;9.182;2023-04-06T01:05:46;98314.28;;;1.95;nan
113;BME280;45999;48.808;9.182;2023-04-06T01:08:12;98313.78;;;1.99;nan
113;BME280;45999;48.808;9.182;2023-04-06T01:10:39;98312.63;;;1.94;nan
113;BME280;45999;48.808;9.182;2023-04-06T01:13:06;98308.69;;;1.90;nan
113;BME280;45999;48.808;9.182;2023-04-06T01:15:33;98303.09;;;1.93;nan
113;BME280;45999;48.808;9.182;2023-04-06T01:18:03;98307.34;;;1.86;nan
113;BME280;45999;48.808;9.182;2023-04-06T01:20:31;98302.13;;;1.86;nan
113;BME280;45999;48.808;9.182;2023-04-06T01:22:58;98300.63;;;1.83;nan
113;BME280;45999;48.808;9.182;2023-04-06T01:25:24;98303.09;;;1.85;nan
113;BME280;45999;48.808;9.182;2023-04-06T01:27:51;98303.09;;;1.85;nan
113;BME280;45999;48.808;9.182;2023-04-06T01:30:17;98301.28;;;1.77;nan
113;BME280;45999;48.808;9.182;2023-04-06T01:32:44;98299.59;;;1.76;nan
113;BME280;45999;48.808;9.182;2023-04-06T01:35:10;98299.47;;;1.78;nan
113;BME280;45999;48.808;9.182;2023-04-06T01:37:37;98302.41;;;1.75;nan
113;BME280;45999;48.808;9.182;2023-04-06T01:40:04;98292.34;;;1.62;nan
113;BME280;45999;48.808;9.182;2023-04-06T01:42:30;98286.31;;;1.62;nan
113;BME280;45999;48.808;9.182;2023-04-06T01:44:57;98291.19;;;1.57;nan
113;BME280;45999;48.808;9.182;2023-04-06T01:47:23;98286.31;;;1.62;nan
113;BME280;45999;48.808;9.182;2023-04-06T01:49:49;98283.34;;;1.57;nan
113;BME280;45999;48.808;9.182;2023-04-06T01:52:16;98280.88;;;1.55;nan
113;BME280;45999;48.808;9.182;2023-04-06T01:54:42;98275.47;;;1.57;nan
113;BME280;45999;48.808;9.182;2023-04-06T01:57:10;98279.03;;;1.48;nan
113;BME280;45999;48.808;9.182;2023-04-06T01:59:36;98282.31;;;1.50;nan
113;BME280;45999;48.808;9.182;2023-04-06T02:02:03;98269.88;;;1.52;nan
113;BME280;45999;48.808;9.182;2023-04-06T02:04:29;98275.94;;;1.52;nan
113;BME280;45999;48.808;9.182;2023-04-06T02:06:56;98278.84;;;1.49;nan
113;BME280;45999;48.808;9.182;2023-04-06T02:09:22;98279.69;;;1.50;nan
113;BME280;45999;48.808;9.182;2023-04-06T02:11:49;98282.00;;;1.53;nan
113;BME280;45999;48.808;9.182;2023-04-06T02:14:15;98277.72;;;1.44;nan
113;BME280;45999;48.808;9.182;2023-04-06T02:16:41;98284.47;;;1.29;nan
113;BME280;45999;48.808;9.182;2023-04-06T02:19:08;98276.31;;;1.32;nan
113;BME280;45999;48.808;9.182;2023-04-06T02:21:34;98276.03;;;1.35;nan
113;BME280;45999;48.808;9.182;2023-04-06T02:24:01;98279.25;;;1.29;nan
113;BME280;45999;48.808;9.182;2023-04-06T02:26:27;98277.34;;;1.39;nan
113;BME280;45999;48.808;9.182;2023-04-06T02:28:53;98275.34;;;1.33;nan
113;BME280;45999;48.808;9.182;2023-04-06T02:31:20;98271.88;;;1.24;nan
113;BME280;45999;48.808;9.182;2023-04-06T02:33:46;98274.94;;;1.20;nan
113;BME280;45999;48.808;9.182;2023-04-06T02:36:13;98275.28;;;1.25;nan
113;BME280;45999;48.808;9.182;2023-04-06T02:38:39;98271.56;;;1.27;nan
113;BME280;45999;48.808;9.182;2023-04-06T02:41:06;98267.44;;;1.25;nan
113;BME280;45999;48.808;9.182;2023-04-06T02:43:32;98275.13;;;1.18;nan
113;BME280;45999;48.808;9.182;2023-04-06T02:45:59;98271.00;;;1.16;nan
113;BME280;45999;48.808;9.182;2023-04-06T02:48:25;98268.56;;;1.14;nan
113;BME280;45999;48.808;9.182;2023-04-06T02:50:52;98266.22;;;1.11;nan
113;BME280;45999;48.808;9.182;2023-04-06T02:53:18;98259.88;;;1.14;nan
113;BME280;45999;48.808;9.182;2023-04-06T02:55:44;98267.06;;;1.12;nan
113;BME280;45999;48.808;9.182;2023-04-06T02:58:11;98267.38;;;1.09;nan
113;BME280;45999;48.808;9.182;2023-04-06T03:00:37;98269.97;;;1.09;nan
113;BME280;45999;48.808;9.182;2023-04-06T03:03:04;98268.13;;;1.01;nan
113;BME280;45999;48.808;9.182;2023-04-06T03:05:30;98263.88;;;1.00;nan
113;BME280;45999;48.808;9.182;2023-04-06T03:07:57;98268.59;;;0.97;nan
113;BME280;45999;48.808;9.182;2023-04-06T03:10:23;98264.69;;;1.01;nan
113;BME280;45999;48.808;9.182;2023-04-06T03:12:50;98262.91;;;1.01;nan
113;BME280;45999;48.808;9.182;2023-04-06T03:15:16;98264.25;;;1.05;nan
113;BME280;45999;48.808;9.182;2023-04-06T03:17:43;98264.59;;;1.10;nan
113;BME280;45999;48.808;9.182;2023-04-06T03:20:09;98262.97;;;1.09;nan
113;BME280;45999;48.808;9.182;2023-04-06T03:22:36;98255.69;;;1.03;nan
113;BME280;45999;48.808;9.182;2023-04-06T03:25:02;98262.22;;;0.99;nan
113;BME280;45999;48.808;9.182;2023-04-06T03:27:29;98261.56;;;0.97;nan
113;BME280;45999;48.808;9.182;2023-04-06T03:29:55;98259.78;;;0.98;nan
113;BME280;45999;48.808;9.182;2023-04-06T03:32:22;98265.00;;;0.98;nan
113;BME280;45999;48.808;9.182;2023-04-06T03:34:48;98267.25;;;0.93;nan
113;BME280;45999;48.808;9.182;2023-04-06T03:37:14;98267.25;;;0.93;nan
113;BME280;45999;48.808;9.182;2023-04-06T03:39:41;98266.94;;;0.96;nan
113;BME280;45999;48.808;9.182;2023-04-06T03:42:07;98267.88;;;0.87;nan
113;BME280;45999;48.808;9.182;2023-04-06T03:44:34;98266.38;;;0.84;nan
113;BME280;45999;48.808;9.182;2023-04-06T03:47:00;98262.34;;;0.90;nan
113;BME280;45999;48.808;9.182;2023-04-06T03:49:27;98269.28;;;0.81;nan
113;BME280;45999;48.808;9.182;2023-04-06T03:51:53;98276.00;;;0.84;nan
113;BME280;45999;48.808;9.182;2023-04-06T03:54:20;98271.47;;;0.86;nan
113;BME280;45999;48.808;9.182;2023-04-06T03:56:46;98271.75;;;0.83;nan
113;BME280;45999;48.808;9.182;2023-04-06T03:59:13;98274.22;;;0.84;nan
113;BME280;45999;48.808;9.182;2023-04-06T04:01:40;98276.50;;;0.79;nan
113;BME280;45999;48.808;9.182;2023-04-06T04:04:06;98271.25;;;0.79;nan
113;BME280;45999;48.808;9.182;2023-04-06T04:06:32;98271.03;;;0.73;nan
113;BME280;45999;48.808;9.182;2023-04-06T04:09:01;98277.84;;;0.83;nan
113;BME280;45999;48.808;9.182;2023-04-06T04:11:28;98280.31;;;0.85;nan
113;BME280;45999;48.808;9.182;2023-04-06T04:13:54;98279.25;;;0.78;nan
113;BME280;45999;48.808;9.182;2023-04-06T04:16:20;98285.47;;;0.77;nan
113;BME280;45999;48.808;9.182;2023-04-06T04:18:47;98286.59;;;0.74;nan
113;BME280;45999;48.808;9.182;2023-04-06T04:21:14;98286.44;;;0.76;nan
113;BME280;45999;48.808;9.182;2023-04-06T04:23:40;98287.25;;;0.76;nan
113;BME280;45999;48.808;9.182;2023-04-06T04:26:06;98291.34;;;0.79;nan
113;BME280;45999;48.808;9.182;2023-04-06T04:28:33;98291.97;;;0.73;nan
113;BME280;45999;48.808;9.182;2023-04-06T04:30:59;98294.75;;;0.71;nan
113;BME280;45999;48.808;9.182;2023-04-06T04:33:26;98286.09;;;0.71;nan
113;BME280;45999;48.808;9.182;2023-04-06T04:35:52;98294.22;;;0.68;nan
113;BME280;45999;48.808;9.182;2023-04-06T04:38:19;98286.09;;;0.71;nan
113;BME280;45999;48.808;9.182;2023-04-06T04:40:46;98292.13;;;0.71;nan
113;BME280;45999;48.808;9.182;2023-04-06T04:43:12;98289.97;;;0.67;nan
113;BME280;45999;48.808;9.182;2023-04-06T04:45:38;98283.63;;;0.69;nan
113;BME280;45999;48.808;9.182;2023-04-06T04:48:05;98292.59;;;0.67;nan
113;BME280;45999;48.808;9.182;2023-04-06T04:50:33;98292.59;;;0.67;nan
113;BME280;45999;48.808;9.182;2023-04-06T04:52:59;98287.34;;;0.67;nan
113;BME280;45999;48.808;9.182;2023-04-06T04:55:26;98290.91;;;0.66;nan
113;BME280;45999;48.808;9.182;2023-04-06T04:57:52;98295.72;;;0.70;nan
113;BME280;45999;48.808;9.182;2023-04-06T05:00:19;98290.25;;;0.64;nan
113;BME280;45999;48.808;9.182;2023-04-06T05:02:45;98294.38;;;0.66;nan
113;BME280;45999;48.808;9.182;2023-04-06T05:05:12;98290.91;;;0.66;nan
113;BME280;45999;48.808;9.182;2023-04-06T05:07:38;98292.47;;;0.76;nan
113;BME280;45999;48.808;9.182;2023-04-06T05:10:05;98293.09;;;0.70;nan
113;BME280;45999;48.808;9.182;2023-04-06T05:12:32;98296.59;;;0.79;nan
113;BME280;45999;48.808;9.182;2023-04-06T05:14:58;98296.66;;;0.87;nan
113;BME280;45999;48.808;9.182;2023-04-06T05:17:25;98299.78;;;0.90;nan
113;BME280;45999;48.808;9.182;2023-04-06T05:19:52;98298.66;;;0.93;nan
113;BME280;45999;48.808;9.182;2023-04-06T05:22:18;98307.69;;;0.98;nan
113;BME280;45999;48.808;9.182;2023-04-06T05:24:45;98314.13;;;1.04;nan
113;BME280;45999;48.808;9.182;2023-04-06T05:27:11;98316.47;;;1.15;nan
113;BME280;45999;48.808;9.182;2023-04-06T05:29:38;98313.88;;;1.15;nan
113;BME280;45999;48.808;9.182;2023-04-06T05:32:04;98318.84;;;1.26;nan
113;BME280;45999;48.808;9.182;2023-04-06T05:34:31;98313.91;;;1.23;nan
113;BME280;45999;48.808;9.182;2023-04-06T05:36:57;98320.19;;;1.30;nan
113;BME280;45999;48.808;9.182;2023-04-06T05:39:24;98325.63;;;1.36;nan
113;BME280;45999;48.808;9.182;2023-04-06T05:41:51;98321.88;;;1.39;nan
113;BME280;45999;48.808;9.182;2023-04-06T05:44:17;98316.22;;;1.51;nan
113;BME280;45999;48.808;9.182;2023-04-06T05:46:44;98329.88;;;1.63;nan
113;BME280;45999;48.808;9.182;2023-04-06T05:49:10;98324.63;;;1.63;nan
113;BME280;45999;48.808;9.182;2023-04-06T05:51:37;98322.81;;;1.63;nan
113;BME280;45999;48.808;9.182;2023-04-06T05:54:04;98326.66;;;1.77;nan
113;BME280;45999;48.808;9.182;2023-04-06T05:56:30;98323.53;;;1.81;nan
113;BME280;45999;48.808;9.182;2023-04-06T05:58:57;98323.28;;;1.92;nan
113;BME280;45999;48.808;9.182;2023-04-06T06:01:23;98325.94;;;2.00;nan
113;BME280;45999;48.808;9.182;2023-04-06T06:03:50;98322.81;;;2.05;nan
113;BME280;45999;48.808;9.182;2023-04-06T06:06:16;98331.72;;;2.20;nan
113;BME280;45999;48.808;9.182;2023-04-06T06:08:43;98327.28;;;2.20;nan
113;BME280;45999;48.808;9.182;2023-04-06T06:11:09;98328.44;;;2.18;nan
113;BME280;45999;48.808;9.182;2023-04-06T06:13:36;98331.06;;;2.18;nan
113;BME280;45999;48.808;9.182;2023-04-06T06:16:02;98340.25;;;2.22;nan
113;BME280;45999;48.808;9.182;2023-04-06T06:18:30;98333.41;;;2.37;nan
113;BME280;45999;48.808;9.182;2023-04-06T06:20:57;98333.91;;;2.48;nan
113;BME280;45999;48.808;9.182;2023-04-06T06:23:23;98329.97;;;2.44;nan
113;BME280;45999;48.808;9.182;2023-04-06T06:25:50;98323.41;;;2.48;nan
113;BME280;45999;48.808;9.182;2023-04-06T06:28:16;98330.97;;;2.67;nan
113;BME280;45999;48.808;9.182;2023-04-06T06:30:43;98323.78;;;2.77;nan
113;BME280;45999;48.808;9.182;2023-04-06T06:33:09;98328.84;;;2.79;nan
113;BME280;45999;48.808;9.182;2023-04-06T06:35:36;98325.09;;;2.89;nan
113;BME280;45999;48.808;9.182;2023-04-06T06:38:03;98330.69;;;2.86;nan
113;BME280;45999;48.808;9.182;2023-04-06T06:40:30;98335.44;;;2.91;nan
113;BME280;45999;48.808;9.182;2023-04-06T06:42:56;98334.75;;;3.05;nan
113;BME280;45999;48.808;9.182;2023-04-06T06:45:23;98326.88;;;2.97;nan
113;BME280;45999;48.808;9.182;2023-04-06T06:47:50;98337.56;;;3.11;nan
113;BME280;45999;48.808;9.182;2023-04-06T06:50:17;98337.06;;;3.08;nan
113;BME280;45999;48.808;9.182;2023-04-06T06:52:43;98345.28;;;3.21;nan
113;BME280;45999;48.808;9.182;2023-04-06T06:55:10;98336.03;;;3.33;nan
113;BME280;45999;48.808;9.182;2023-04-06T06:57:37;98340.81;;;3.37;nan
113;BME280;45999;48.808;9.182;2023-04-06T07:00:05;98340.97;;;3.52;nan
113;BME280;45999;48.808;9.182;2023-04-06T07:02:34;98342.06;;;3.57;nan
113;BME280;45999;48.808;9.182;2023-04-06T07:05:00;98346.69;;;3.55;nan
113;BME280;45999;48.808;9.182;2023-04-06T07:07:27;98343.53;;;3.60;nan
113;BME280;45999;48.808;9.182;2023-04-06T07:09:53;98337.78;;;3.64;nan
113;BME280;45999;48.808;9.182;2023-04-06T07:12:20;98336.25;;;3.78;nan
113;BME280;45999;48.808;9.182;2023-04-06T07:14:46;98348.78;;;3.76;nan
113;BME280;45999;48.808;9.182;2023-04-06T07:17:13;98342.81;;;3.82;nan
113;BME280;45999;48.808;9.182;2023-04-06T07:19:39;98341.50;;;3.86;nan
113;BME280;45999;48.808;9.182;2023-04-06T07:22:06;98345.25;;;3.99;nan
113;BME280;45999;48.808;9.182;2023-04-06T07:24:33;98344.16;;;4.16;nan
113;BME280;45999;48.808;9.182;2023-04-06T07:27:00;98346.31;;;4.13;nan
113;BME280;45999;48.808;9.182;2023-04-06T07:29:27;98349.56;;;4.23;nan
113;BME280;45999;48.808;9.182;2023-04-06T07:31:54;98347.16;;;4.44;nan
113;BME280;45999;48.808;9.182;2023-04-06T07:34:21;98358.81;;;4.49;nan
113;BME280;45999;48.808;9.182;2023-04-06T07:36:48;98344.59;;;4.58;nan
113;BME280;45999;48.808;9.182;2023-04-06T07:39:14;98340.09;;;4.67;nan
113;BME280;45999;48.808;9.182;2023-04-06T07:41:41;98341.91;;;4.66;nan
113;BME280;45999;48.808;9.182;2023-04-06T07:44:07;98347.00;;;4.90;nan
113;BME280;45999;48.808;9.182;2023-04-06T07:46:33;98347.81;;;4.91;nan
113;BME280;45999;48.808;9.182;2023-04-06T07:49:00;98352.50;;;5.03;nan
113;BME280;45999;48.808;9.182;2023-04-06T07:51:27;98339.91;;;5.13;nan
113;BME280;45999;48.808;9.182;2023-04-06T07:53:54;98345.75;;;5.23;nan
113;BME280;45999;48.808;9.182;2023-04-06T07:56:20;98339.34;;;5.18;nan
113;BME280;45999;48.808;9.182;2023-04-06T07:58:47;98340.22;;;5.33;nan
113;BME280;45999;48.808;9.182;2023-04-06T08:01:13;98339.91;;;5.28;nan
113;BME280;45999;48.808;9.182;2023-04-06T08:03:40;98349.88;;;5.55;nan
113;BME280;45999;48.808;9.182;2023-04-06T08:06:06;98347.44;;;5.68;nan
113;BME280;45999;48.808;9.182;2023-04-06T08:08:33;98342.38;;;5.81;nan
113;BME280;45999;48.808;9.182;2023-04-06T08:10:59;98342.75;;;6.07;nan
113;BME280;45999;48.808;9.182;2023-04-06T08:13:28;98340.53;;;6.25;nan
113;BME280;45999;48.808;9.182;2023-04-06T08:15:54;98343.47;;;6.15;nan
113;BME280;45999;48.808;9.182;2023-04-06T08:18:22;98347.72;;;6.16;nan
113;BME280;45999;48.808;9.182;2023-04-06T08:20:48;98347.94;;;6.15;nan
113;BME280;45999;48.808;9.182;2023-04-06T08:23:15;98351.97;;;6.32;nan
113;BME280;45999;48.808;9.182;2023-04-06T08:25:42;98351.97;;;6.32;nan
113;BME280;45999;48.808;9.182;2023-04-06T08:28:08;98348.44;;;6.39;nan
113;BME280;45999;48.808;9.182;2023-04-06T08:30:35;98344.00;;;6.61;nan
113;BME280;45999;48.808;9.182;2023-04-06T08:33:02;98343.75;;;6.77;nan
113;BME280;45999;48.808;9.182;2023-04-06T08:35:29;98344.84;;;7.03;nan
113;BME280;45999;48.808;9.182;2023-04-06T08:37:56;98341.81;;;7.06;nan
113;BME280;45999;48.808;9.182;2023-04-06T08:40:23;98339.88;;;7.15;nan
113;BME280;45999;48.808;9.182;2023-04-06T08:42:54;98338.00;;;7.36;nan
113;BME280;45999;48.808;9.182;2023-04-06T08:45:21;98340.13;;;7.47;nan
113;BME280;45999;48.808;9.182;2023-04-06T08:47:50;98335.22;;;7.44;nan
113;BME280;45999;48.808;9.182;2023-04-06T08:50:17;98336.53;;;7.61;nan
113;BME280;45999;48.808;9.182;2023-04-06T08:52:48;98336.25;;;7.77;nan
113;BME280;45999;48.808;9.182;2023-04-06T08:55:15;98337.81;;;7.65;nan
113;BME280;45999;48.808;9.182;2023-04-06T08:57:42;98334.69;;;7.83;nan
113;BME280;45999;48.808;9.182;2023-04-06T09:00:10;98328.03;;;8.00;nan
113;BME280;45999;48.808;9.182;2023-04-06T09:02:42;98327.38;;;8.25;nan
113;BME280;45999;48.808;9.182;2023-04-06T09:05:10;98327.03;;;8.41;nan
113;BME280;45999;48.808;9.182;2023-04-06T09:07:37;98322.53;;;8.35;nan
113;BME280;45999;48.808;9.182;2023-04-06T09:10:06;98321.53;;;8.43;nan
113;BME280;45999;48.808;9.182;2023-04-06T09:12:34;98318.75;;;8.64;nan
113;BME280;45999;48.808;9.182;2023-04-06T09:15:01;98317.06;;;8.50;nan
113;BME280;45999;48.808;9.182;2023-04-06T09:17:29;98319.09;;;8.48;nan
113;BME280;45999;48.808;9.182;2023-04-06T09:19:58;98319.97;;;8.68;nan
113;BME280;45999;48.808;9.182;2023-04-06T09:22:24;98324.09;;;8.96;nan
113;BME280;45999;48.808;9.182;2023-04-06T09:24:53;98308.00;;;9.04;nan
113;BME280;45999;48.808;9.182;2023-04-06T09:27:30;98312.72;;;9.09;nan
113;BME280;45999;48.808;9.182;2023-04-06T09:30:08;98315.31;;;8.83;nan
113;BME280;45999;48.808;9.182;2023-04-06T09:32:49;98320.03;;;8.94;nan
113;BME280;45999;48.808;9.182;2023-04-06T09:35:17;98317.19;;;9.08;nan
113;BME280;45999;48.808;9.182;2023-04-06T09:37:46;98320.06;;;9.33;nan
113;BME280;45999;48.808;9.182;2023-04-06T09:40:13;98308.63;;;9.26;nan
113;BME280;45999;48.808;9.182;2023-04-06T09:42:45;98318.41;;;9.58;nan
113;BME280;45999;48.808;9.182;2023-04-06T09:45:11;98310.63;;;9.56;nan
113;BME280;45999;48.808;9.182;2023-04-06T09:47:40;98304.03;;;9.91;nan
113;BME280;45999;48.808;9.182;2023-04-06T09:50:10;98304.16;;;10.22;nan
113;BME280;45999;48.808;9.182;2023-04-06T09:52:47;98306.66;;;9.98;nan
113;BME280;45999;48.808;9.182;2023-04-06T09:55:23;98299.47;;;10.24;nan
113;BME280;45999;48.808;9.182;2023-04-06T09:57:57;98297.38;;;10.33;nan
113;BME280;45999;48.808;9.182;2023-04-06T10:00:25;98303.72;;;10.69;nan
113;BME280;45999;48.808;9.182;2023-04-06T10:05:42;98296.81;;;10.62;nan
113;BME280;45999;48.808;9.182;2023-04-06T10:08:10;98298.28;;;10.58;nan
113;BME280;45999;48.808;9.182;2023-04-06T10:10:37;98296.38;;;10.71;nan
113;BME280;45999;48.808;9.182;2023-04-06T10:13:04;98289.59;;;10.75;nan
113;BME280;45999;48.808;9.182;2023-04-06T10:15:31;98294.56;;;10.65;nan
113;BME280;45999;48.808;9.182;2023-04-06T10:17:59;98299.06;;;10.96;nan
113;BME280;45999;48.808;9.182;2023-04-06T10:20:29;98290.34;;;10.82;nan
113;BME280;45999;48.808;9.182;2023-04-06T10:23:19;98284.97;;;10.58;nan
113;BME280;45999;48.808;9.182;2023-04-06T10:25:57;98286.88;;;11.13;nan
113;BME280;45999;48.808;9.182;2023-04-06T10:28:23;98282.56;;;11.12;nan
113;BME280;45999;48.808;9.182;2023-04-06T10:30:57;98287.97;;;10.99;nan
113;BME280;45999;48.808;9.182;2023-04-06T10:33:24;98286.47;;;10.54;nan
113;BME280;45999;48.808;9.182;2023-04-06T10:35:51;98279.28;;;10.54;nan
113;BME280;45999;48.808;9.182;2023-04-06T10:38:18;98281.63;;;10.75;nan
113;BME280;45999;48.808;9.182;2023-04-06T10:40:47;98279.69;;;11.13;nan
113;BME280;45999;48.808;9.182;2023-04-06T10:43:22;98284.13;;;11.44;nan
113;BME280;45999;48.808;9.182;2023-04-06T10:45:56;98285.47;;;11.60;nan
113;BME280;45999;48.808;9.182;2023-04-06T10:48:23;98275.19;;;11.63;nan
113;BME280;45999;48.808;9.182;2023-04-06T10:50:53;98271.13;;;11.36;nan
113;BME280;45999;48.808;9.182;2023-04-06T10:53:27;98266.81;;;10.55;nan
113;BME280;45999;48.808;9.182;2023-04-06T10:55:57;98269.03;;;11.38;nan
113;BME280;45999;48.808;9.182;2023-04-06T10:58:26;98268.16;;;11.44;nan
113;BME280;45999;48.808;9.182;2023-04-06T11:00:53;98268.84;;;11.64;nan
113;BME280;45999;48.808;9.182;2023-04-06T11:03:20;98274.16;;;11.64;nan
113;BME280;45999;48.808;9.182;2023-04-06T11:05:49;98269.63;;;11.65;nan
113;BME280;45999;48.808;9.182;2023-04-06T11:10:48;98271.94;;;11.61;nan
113;BME280;45999;48.808;9.182;2023-04-06T11:13:15;98264.28;;;11.22;nan
113;BME280;45999;48.808;9.182;2023-04-06T11:15:42;98263.09;;;10.93;nan
113;BME280;45999;48.808;9.182;2023-04-06T11:18:08;98265.13;;;10.60;nan
113;BME280;45999;48.808;9.182;2023-04-06T11:20:36;98254.69;;;11.39;nan
113;BME280;45999;48.808;9.182;2023-04-06T11:23:02;98248.34;;;11.58;nan
113;BME280;45999;48.808;9.182;2023-04-06T11:25:29;98249.81;;;11.79;nan
113;BME280;45999;48.808;9.182;2023-04-06T11:27:58;98242.50;;;11.74;nan
113;BME280;45999;48.808;9.182;2023-04-06T11:30:25;98247.25;;;11.72;nan
113;BME280;45999;48.808;9.182;2023-04-06T11:32:51;98238.44;;;11.47;nan
113;BME280;45999;48.808;9.182;2023-04-06T11:35:23;98233.13;;;11.47;nan
113;BME280;45999;48.808;9.182;2023-04-06T11:37:50;98228.84;;;11.46;nan
113;BME280;45999;48.808;9.182;2023-04-06T11:40:21;98232.59;;;11.99;nan
113;BME280;45999;48.808;9.182;2023-04-06T11:42:53;98223.59;;;10.90;nan
113;BME280;45999;48.808;9.182;2023-04-06T11:45:20;98226.25;;;11.40;nan
113;BME280;45999;48.808;9.182;2023-04-06T11:47:56;98224.16;;;11.84;nan
113;BME280;45999;48.808;9.182;2023-04-06T11:50:24;98222.44;;;11.72;nan
113;BME280;45999;48.808;9.182;2023-04-06T11:53:01;98220.34;;;12.10;nan
113;BME280;45999;48.808;9.182;2023-04-06T11:55:28;98227.31;;;12.11;nan
113;BME280;45999;48.808;9.182;2023-04-06T11:57:54;98219.28;;;11.63;nan
113;BME280;45999;48.808;9.182;2023-04-06T12:00:21;98222.94;;;11.62;nan
113;BME280;45999;48.808;9.182;2023-04-06T12:02:48;98224.03;;;11.12;nan
113;BME280;45999;48.808;9.182;2023-04-06T12:05:15;98219.56;;;11.31;nan
113;BME280;45999;48.808;9.182;2023-04-06T12:07:41;98215.47;;;11.53;nan
113;BME280;45999;48.808;9.182;2023-04-06T12:10:08;98221.56;;;11.78;nan
113;BME280;45999;48.808;9.182;2023-04-06T12:12:35;98204.91;;;12.00;nan
113;BME280;45999;48.808;9.182;2023-04-06T12:15:01;98208.84;;;12.27;nan
113;BME280;45999;48.808;9.182;2023-04-06T12:17:28;98202.50;;;12.10;nan
113;BME280;45999;48.808;9.182;2023-04-06T12:19:54;98203.13;;;11.94;nan
113;BME280;45999;48.808;9.182;2023-04-06T12:22:21;98207.50;;;11.71;nan
113;BME280;45999;48.808;9.182;2023-04-06T12:24:47;98202.13;;;11.77;nan
113;BME280;45999;48.808;9.182;2023-04-06T12:27:14;98196.72;;;11.84;nan
113;BME280;45999;48.808;9.182;2023-04-06T12:29:40;98192.78;;;11.68;nan
113;BME280;45999;48.808;9.182;2023-04-06T12:32:07;98185.47;;;11.39;nan
113;BME280;45999;48.808;9.182;2023-04-06T12:34:33;98185.81;;;11.67;nan
113;BME280;45999;48.808;9.182;2023-04-06T12:37:00;98186.34;;;11.94;nan
113;BME280;45999;48.808;9.182;2023-04-06T12:39:29;98180.34;;;11.62;nan
113;BME280;45999;48.808;9.182;2023-04-06T12:41:56;98175.00;;;11.80;nan
113;BME280;45999;48.808;9.182;2023-04-06T12:44:22;98179.56;;;11.62;nan
113;BME280;45999;48.808;9.182;2023-04-06T12:46:49;98174.81;;;12.11;nan
113;BME280;45999;48.808;9.182;2023-04-06T12:49:16;98175.25;;;12.08;nan
113;BME280;45999;48.808;9.182;2023-04-06T12:51:44;98175.06;;;12.51;nan
113;BME280;45999;48.808;9.182;2023-04-06T12:54:10;98175.22;;;12.26;nan
113;BME280;45999;48.808;9.182;2023-04-06T12:56:37;98171.78;;;12.37;nan
113;BME280;45999;48.808;9.182;2023-04-06T12:59:03;98179.63;;;12.21;nan
113;BME280;45999;48.808;9.182;2023-04-06T13:01:30;98180.16;;;12.11;nan
113;BME280;45999;48.808;9.182;2023-04-06T13:03:57;98176.31;;;12.07;nan
113;BME280;45999;48.808;9.182;2023-04-06T13:06:24;98168.28;;;11.78;nan
113;BME280;45999;48.808;9.182;2023-04-06T13:08:52;98165.19;;;12.40;nan
113;BME280;45999;48.808;9.182;2023-04-06T13:11:19;98165.81;;;12.65;nan
113;BME280;45999;48.808;9.182;2023-04-06T13:13:48;98167.88;;;12.51;nan
113;BME280;45999;48.808;9.182;2023-04-06T13:16:14;98158.16;;;12.45;nan
113;BME280;45999;48.808;9.182;2023-04-06T13:18:41;98168.75;;;12.63;nan
113;BME280;45999;48.808;9.182;2023-04-06T13:21:08;98161.22;;;12.72;nan
113;BME280;45999;48.808;9.182;2023-04-06T13:23:34;98164.13;;;12.93;nan
113;BME280;45999;48.808;9.182;2023-04-06T13:26:03;98158.28;;;12.62;nan
113;BME280;45999;48.808;9.182;2023-04-06T13:28:31;98150.84;;;12.52;nan
113;BME280;45999;48.808;9.182;2023-04-06T13:30:59;98143.88;;;12.51;nan
113;BME280;45999;48.808;9.182;2023-04-06T13:33:26;98142.50;;;12.49;nan
113;BME280;45999;48.808;9.182;2023-04-06T13:35:52;98156.81;;;12.77;nan
113;BME280;45999;48.808;9.182;2023-04-06T13:38:19;98140.50;;;13.08;nan
113;BME280;45999;48.808;9.182;2023-04-06T13:40:46;98139.66;;;12.96;nan
113;BME280;45999;48.808;9.182;2023-04-06T13:43:12;98137.25;;;13.06;nan
113;BME280;45999;48.808;9.182;2023-04-06T13:45:39;98145.81;;;13.43;nan
113;BME280;45999;48.808;9.182;2023-04-06T13:48:06;98140.25;;;13.44;nan
113;BME280;45999;48.808;9.182;2023-04-06T13:50:33;98135.72;;;12.87;nan
113;BME280;45999;48.808;9.182;2023-04-06T13:53:00;98135.16;;;13.08;nan
113;BME280;45999;48.808;9.182;2023-04-06T13:55:26;98133.06;;;13.22;nan
113;BME280;45999;48.808;9.182;2023-04-06T13:57:52;98130.66;;;13.60;nan